createdAt,value
2022-11-07T00:01:51.380Z,29.42
2022-11-07T00:04:18.180Z,27.98
2022-11-07T00:06:44.920Z,28.67
2022-11-07T00:09:11.698Z,29.15
2022-11-07T00:11:38.389Z,30.88
2022-11-07T00:14:06.243Z,29.30
2022-11-07T00:16:33.214Z,29.13
2022-11-07T00:18:59.934Z,27.85
2022-11-07T00:21:26.694Z,28.35
2022-11-07T00:23:53.380Z,29.50
2022-11-07T00:26:20.117Z,28.75
2022-11-07T00:28:47.403Z,27.48
2022-11-07T00:31:16.332Z,28.27
2022-11-07T00:33:43.933Z,26.38
2022-11-07T00:36:18.697Z,26.27
2022-11-07T00:38:45.927Z,25.77
2022-11-07T00:41:13.076Z,27.95
2022-11-07T00:43:39.855Z,27.48
2022-11-07T00:46:08.298Z,24.58
2022-11-07T00:48:35.508Z,24.83
2022-11-07T00:51:10.464Z,24.33
2022-11-07T00:53:39.038Z,25.20
2022-11-07T00:56:09.395Z,27.27
2022-11-07T00:58:37.061Z,28.17
2022-11-07T01:01:20.187Z,27.35
2022-11-07T01:04:06.318Z,28.70
2022-11-07T01:06:34.992Z,27.35
2022-11-07T01:09:02.114Z,26.73
2022-11-07T01:11:31.350Z,27.70
2022-11-07T01:13:59.867Z,29.30
2022-11-07T01:16:27.562Z,29.77
2022-11-07T01:18:54.508Z,29.70
2022-11-07T01:21:21.583Z,29.65
2022-11-07T01:23:48.609Z,29.83
2022-11-07T01:26:16.039Z,29.73
2022-11-07T01:28:42.935Z,30.77
2022-11-07T01:31:12.556Z,32.35
2022-11-07T01:33:40.560Z,30.23
2022-11-07T01:36:11.797Z,29.58
2022-11-07T01:38:45.467Z,28.48
2022-11-07T01:41:21.244Z,31.40
2022-11-07T01:44:02.209Z,29.33
2022-11-07T01:46:41.756Z,29.77
2022-11-07T01:49:11.861Z,28.73
2022-11-07T01:51:55.666Z,29.90
2022-11-07T01:54:25.171Z,28.42
2022-11-07T01:56:56.155Z,26.67
2022-11-07T01:59:26.732Z,27.90
2022-11-07T02:01:54.867Z,29.35
2022-11-07T02:04:25.559Z,29.00
2022-11-07T02:07:03.162Z,27.33
2022-11-07T02:09:30.264Z,26.95
2022-11-07T02:12:01.048Z,26.20
2022-11-07T02:14:31.027Z,28.08
2022-11-07T02:17:00.180Z,27.45
2022-11-07T02:19:39.428Z,26.90
2022-11-07T02:22:43.202Z,27.27
2022-11-07T02:25:13.330Z,24.95
2022-11-07T02:27:42.534Z,25.70
2022-11-07T02:30:13.319Z,26.42
2022-11-07T02:32:40.580Z,26.73
2022-11-07T02:35:30.335Z,26.35
2022-11-07T02:37:58.363Z,25.65
2022-11-07T02:40:25.311Z,26.02
2022-11-07T02:42:52.364Z,27.17
2022-11-07T02:45:29.407Z,26.88
2022-11-07T02:47:58.782Z,26.88
2022-11-07T02:50:25.892Z,27.20
2022-11-07T02:52:52.599Z,28.45
2022-11-07T02:55:19.426Z,31.05
2022-11-07T02:58:06.528Z,26.90
2022-11-07T03:00:53.300Z,28.92
2022-11-07T03:03:43.299Z,30.60
2022-11-07T03:06:30.008Z,30.40
2022-11-07T03:09:16.615Z,30.60
2022-11-07T03:12:03.405Z,28.83
2022-11-07T03:14:50.070Z,31.45
2022-11-07T03:17:35.642Z,30.40
2022-11-07T03:20:22.225Z,30.80
2022-11-07T03:23:08.945Z,31.50
2022-11-07T03:25:55.755Z,32.60
2022-11-07T03:28:43.918Z,31.63
2022-11-07T03:31:31.474Z,32.78
2022-11-07T03:34:18.177Z,32.45
2022-11-07T03:37:05.138Z,31.83
2022-11-07T03:39:50.158Z,30.67
2022-11-07T03:42:40.755Z,30.95
2022-11-07T03:45:27.446Z,32.17
2022-11-07T03:48:14.033Z,31.45
2022-11-07T03:51:01.045Z,32.25
2022-11-07T03:53:47.666Z,32.05
2022-11-07T03:56:34.315Z,32.30
2022-11-07T03:59:21.060Z,30.00
2022-11-07T04:02:08.861Z,31.13
2022-11-07T04:04:55.834Z,31.83
2022-11-07T04:07:42.474Z,31.60
2022-11-07T04:10:29.200Z,30.48
2022-11-07T04:13:36.828Z,30.85
2022-11-07T04:16:42.005Z,31.20
2022-11-07T04:19:28.680Z,31.08
2022-11-07T04:22:15.499Z,32.47
2022-11-07T04:25:02.241Z,29.70
2022-11-07T04:27:50.276Z,29.38
2022-11-07T04:30:37.212Z,29.05
2022-11-07T04:33:23.867Z,29.40
2022-11-07T04:36:10.516Z,29.50
2022-11-07T04:38:57.141Z,26.92
2022-11-07T04:41:43.777Z,26.88
2022-11-07T04:44:30.386Z,24.40
2022-11-07T04:47:17.005Z,24.05
2022-11-07T04:50:04.738Z,22.98
2022-11-07T04:52:52.296Z,22.50
2022-11-07T04:55:38.896Z,21.05
2022-11-07T04:58:25.486Z,20.40
2022-11-07T05:01:12.191Z,20.85
2022-11-07T05:03:58.846Z,21.42
2022-11-07T05:06:45.478Z,20.17
2022-11-07T05:09:33.081Z,21.52
2022-11-07T05:12:20.076Z,21.02
2022-11-07T05:15:09.628Z,20.63
2022-11-07T05:17:55.083Z,20.55
2022-11-07T05:20:42.732Z,20.05
2022-11-07T05:23:29.369Z,20.27
2022-11-07T05:26:16.011Z,17.80
2022-11-07T05:29:02.875Z,17.25
2022-11-07T05:31:49.569Z,17.52
2022-11-07T05:34:36.377Z,16.02
2022-11-07T05:37:22.999Z,15.93
2022-11-07T05:40:10.318Z,15.93
2022-11-07T05:43:05.362Z,15.30
2022-11-07T05:45:52.505Z,14.38
2022-11-07T05:48:39.106Z,13.70
2022-11-07T05:51:25.762Z,12.98
2022-11-07T05:54:11.999Z,13.32
2022-11-07T05:56:59.121Z,10.93
2022-11-07T05:59:45.763Z,10.18
2022-11-07T06:02:32.479Z,8.05
2022-11-07T06:05:23.877Z,5.60
2022-11-07T06:08:13.183Z,5.38
2022-11-07T06:11:03.793Z,5.25
2022-11-07T06:13:50.391Z,4.63
2022-11-07T06:16:37.303Z,3.88
2022-11-07T06:19:23.923Z,3.65
2022-11-07T06:22:10.567Z,3.15
2022-11-07T06:24:57.469Z,3.40
2022-11-07T06:27:44.302Z,3.70
2022-11-07T06:30:31.849Z,3.20
2022-11-07T06:33:19.974Z,3.50
2022-11-07T06:36:09.563Z,3.20
2022-11-07T06:38:56.227Z,3.20
2022-11-07T06:41:42.860Z,3.03
2022-11-07T06:44:29.489Z,3.88
2022-11-07T06:47:16.078Z,5.68
2022-11-07T06:50:02.692Z,6.15
2022-11-07T06:52:49.567Z,6.88
2022-11-07T06:55:37.238Z,5.78
2022-11-07T06:58:24.040Z,5.40
2022-11-07T07:01:13.631Z,5.78
2022-11-07T07:04:00.821Z,5.65
2022-11-07T07:06:46.038Z,5.50
2022-11-07T07:09:31.255Z,6.28
2022-11-07T07:12:16.563Z,6.43
2022-11-07T07:15:02.487Z,7.20
2022-11-07T07:17:49.727Z,6.43
2022-11-07T07:20:34.952Z,7.20
2022-11-07T07:23:21.704Z,7.10
2022-11-07T07:26:11.650Z,7.47
2022-11-07T07:28:56.671Z,7.75
2022-11-07T07:31:41.850Z,6.63
2022-11-07T07:34:26.833Z,7.25
2022-11-07T07:37:12.573Z,7.35
2022-11-07T07:40:00.632Z,7.45
2022-11-07T07:42:46.503Z,7.30
2022-11-07T07:45:32.252Z,8.15
2022-11-07T07:48:17.790Z,7.35
2022-11-07T07:51:03.246Z,8.02
2022-11-07T07:53:48.677Z,7.55
2022-11-07T07:56:33.727Z,8.02
2022-11-07T07:59:19.448Z,7.95
2022-11-07T08:02:05.067Z,8.88
2022-11-07T08:04:50.275Z,8.85
2022-11-07T08:07:35.361Z,8.82
2022-11-07T08:10:41.037Z,8.50
2022-11-07T08:13:27.010Z,9.18
2022-11-07T08:16:12.084Z,9.05
2022-11-07T08:18:58.074Z,8.10
2022-11-07T08:21:44.611Z,9.25
2022-11-07T08:24:17.148Z,8.80
2022-11-07T08:26:44.226Z,8.98
2022-11-07T08:29:11.204Z,8.60
2022-11-07T08:31:38.353Z,8.90
2022-11-07T08:34:05.085Z,8.82
2022-11-07T08:36:31.861Z,9.05
2022-11-07T08:38:59.031Z,8.27
2022-11-07T08:41:26.617Z,8.75
2022-11-07T08:43:53.317Z,8.77
2022-11-07T08:46:20.002Z,9.80
2022-11-07T08:48:46.697Z,8.75
2022-11-07T08:51:13.379Z,9.07
2022-11-07T08:53:40.099Z,9.15
2022-11-07T08:56:09.586Z,9.25
2022-11-07T08:58:37.508Z,9.07
2022-11-07T09:01:10.736Z,9.20
2022-11-07T09:06:19.980Z,9.45
2022-11-07T09:08:46.842Z,8.90
2022-11-07T09:11:15.873Z,8.77
2022-11-07T09:13:42.848Z,8.93
2022-11-07T09:16:10.096Z,10.75
2022-11-07T09:18:36.873Z,9.63
2022-11-07T09:21:03.780Z,9.65
2022-11-07T09:23:31.114Z,9.70
2022-11-07T09:26:01.312Z,9.05
2022-11-07T09:28:28.627Z,10.20
2022-11-07T09:30:56.953Z,9.27
2022-11-07T09:33:24.548Z,9.55
2022-11-07T09:35:52.229Z,9.50
2022-11-07T09:38:19.544Z,9.82
2022-11-07T09:41:06.241Z,9.52
2022-11-07T09:43:52.085Z,9.65
2022-11-07T09:46:36.548Z,9.32
2022-11-07T09:49:15.193Z,9.25
2022-11-07T09:51:47.726Z,9.57
2022-11-07T09:54:21.740Z,10.30
2022-11-07T09:56:49.210Z,9.30
2022-11-07T09:59:33.853Z,9.13
2022-11-07T10:02:00.754Z,8.98
2022-11-07T10:04:27.705Z,9.20
2022-11-07T10:07:17.729Z,9.10
2022-11-07T10:09:56.001Z,8.90
2022-11-07T10:12:44.683Z,8.68
2022-11-07T10:15:33.790Z,8.20
2022-11-07T10:18:23.920Z,8.23
2022-11-07T10:21:31.143Z,9.20
2022-11-07T10:24:37.896Z,7.97
2022-11-07T10:27:10.437Z,8.48
2022-11-07T10:29:53.949Z,8.40
2022-11-07T10:35:14.246Z,8.77
2022-11-07T10:37:40.956Z,8.18
2022-11-07T10:40:16.907Z,8.73
2022-11-07T10:42:47.085Z,7.60
2022-11-07T10:45:17.296Z,7.55
2022-11-07T10:47:55.261Z,7.20
2022-11-07T10:50:23.466Z,7.72
2022-11-07T10:53:09.818Z,7.10
2022-11-07T10:55:45.822Z,6.95
2022-11-07T10:58:25.354Z,8.00
2022-11-07T11:01:09.847Z,7.63
2022-11-07T11:03:46.238Z,7.03
2022-11-07T11:06:18.932Z,7.90
2022-11-07T11:08:51.576Z,6.93
2022-11-07T11:11:36.161Z,7.60
2022-11-07T11:14:11.615Z,7.88
2022-11-07T11:16:40.579Z,6.18
2022-11-07T11:19:18.024Z,7.25
2022-11-07T11:21:47.653Z,7.05
2022-11-07T11:24:29.928Z,6.43
2022-11-07T11:27:03.644Z,6.57
2022-11-07T11:29:39.797Z,6.68
2022-11-07T11:32:17.930Z,6.57
2022-11-07T11:35:00.863Z,7.22
2022-11-07T11:37:27.719Z,7.80
2022-11-07T11:40:02.511Z,7.28
2022-11-07T11:42:53.763Z,6.43
2022-11-07T11:45:49.145Z,5.80
2022-11-07T11:48:49.542Z,5.93
2022-11-07T11:51:41.011Z,5.50
2022-11-07T11:54:14.231Z,6.93
2022-11-07T11:59:16.641Z,6.57
2022-11-07T12:02:07.636Z,6.97
2022-11-07T12:05:09.041Z,6.45
2022-11-07T12:07:53.076Z,5.85
2022-11-07T12:10:28.630Z,6.55
2022-11-07T12:13:15.060Z,5.97
2022-11-07T12:15:52.662Z,6.25
2022-11-07T12:18:27.770Z,5.80
2022-11-07T12:21:25.651Z,6.15
2022-11-07T12:24:16.518Z,5.45
2022-11-07T12:26:58.532Z,5.90
2022-11-07T12:29:51.910Z,5.68
2022-11-07T12:32:39.298Z,5.25
2022-11-07T12:35:21.368Z,5.57
2022-11-07T12:38:06.552Z,6.18
2022-11-07T12:40:51.341Z,5.07
2022-11-07T12:43:46.860Z,5.55
2022-11-07T12:46:22.253Z,5.10
2022-11-07T12:49:07.488Z,4.75
2022-11-07T12:52:08.527Z,4.90
2022-11-07T12:54:37.927Z,5.00
2022-11-07T12:57:12.443Z,4.95
2022-11-07T12:59:41.266Z,5.10
2022-11-07T13:02:26.552Z,6.05
2022-11-07T13:05:08.535Z,5.35
2022-11-07T13:07:41.238Z,4.55
2022-11-07T13:10:25.078Z,5.00
2022-11-07T13:13:18.205Z,4.78
2022-11-07T13:16:13.547Z,4.97
2022-11-07T13:18:32.131Z,4.88
2022-11-07T13:21:05.501Z,4.43
2022-11-07T13:23:33.228Z,4.68
2022-11-07T13:26:10.732Z,5.78
2022-11-07T13:29:02.001Z,4.47
2022-11-07T13:31:40.408Z,4.32
2022-11-07T13:34:23.380Z,4.30
2022-11-07T13:36:56.242Z,4.53
2022-11-07T13:39:24.791Z,4.10
2022-11-07T13:41:52.052Z,3.70
2022-11-07T13:44:31.492Z,3.90
2022-11-07T13:47:02.849Z,4.57
2022-11-07T13:49:45.058Z,4.22
2022-11-07T13:52:53.782Z,4.03
2022-11-07T13:55:25.371Z,4.15
2022-11-07T13:58:03.465Z,3.53
2022-11-07T14:00:32.401Z,3.88
2022-11-07T14:03:00.285Z,3.30
2022-11-07T14:05:29.585Z,3.60
2022-11-07T14:08:02.378Z,3.90
2022-11-07T14:10:39.598Z,3.50
2022-11-07T14:13:22.739Z,3.00
2022-11-07T14:16:32.996Z,3.22
2022-11-07T14:19:07.640Z,3.28
2022-11-07T14:21:36.957Z,3.28
2022-11-07T14:24:20.024Z,2.80
2022-11-07T14:26:57.155Z,2.70
2022-11-07T14:29:23.840Z,2.72
2022-11-07T14:31:50.700Z,2.80
2022-11-07T14:34:18.639Z,2.55
2022-11-07T14:37:21.076Z,3.22
2022-11-07T14:39:48.704Z,3.88
2022-11-07T14:42:19.348Z,3.00
2022-11-07T14:44:54.955Z,3.13
2022-11-07T14:47:26.940Z,2.55
2022-11-07T14:49:54.580Z,3.08
2022-11-07T14:52:24.358Z,2.40
2022-11-07T14:55:03.256Z,3.22
2022-11-07T14:57:31.187Z,2.92
2022-11-07T14:59:58.105Z,3.58
2022-11-07T15:02:34.929Z,3.20
2022-11-07T15:05:09.533Z,3.70
2022-11-07T15:07:47.467Z,3.13
2022-11-07T15:10:24.633Z,3.38
2022-11-07T15:12:54.025Z,3.90
2022-11-07T15:15:22.014Z,3.92
2022-11-07T15:17:55.071Z,4.18
2022-11-07T15:20:39.898Z,4.10
2022-11-07T15:23:14.099Z,4.78
2022-11-07T15:25:51.104Z,5.28
2022-11-07T15:28:25.387Z,4.78
2022-11-07T15:30:55.128Z,5.38
2022-11-07T15:33:23.274Z,6.20
2022-11-07T15:35:55.280Z,5.63
2022-11-07T15:38:24.926Z,6.25
2022-11-07T15:40:52.060Z,5.78
2022-11-07T15:43:20.043Z,6.05
2022-11-07T15:45:49.322Z,5.93
2022-11-07T15:48:25.719Z,6.35
2022-11-07T15:50:52.558Z,5.70
2022-11-07T15:53:28.020Z,6.32
2022-11-07T15:55:59.194Z,6.93
2022-11-07T15:58:28.301Z,6.07
2022-11-07T16:00:55.860Z,6.70
2022-11-07T16:03:24.708Z,7.10
2022-11-07T16:05:54.355Z,6.47
2022-11-07T16:08:24.016Z,6.60
2022-11-07T16:10:53.794Z,6.93
2022-11-07T16:13:20.729Z,6.68
2022-11-07T16:15:57.601Z,7.45
2022-11-07T16:18:24.588Z,7.00
2022-11-07T16:20:51.890Z,7.35
2022-11-07T16:23:19.213Z,7.35
2022-11-07T16:25:49.902Z,7.25
2022-11-07T16:28:31.938Z,7.53
2022-11-07T16:30:59.264Z,6.97
2022-11-07T16:33:26.993Z,7.18
2022-11-07T16:35:59.989Z,7.05
2022-11-07T16:38:32.565Z,7.43
2022-11-07T16:41:00.741Z,8.35
2022-11-07T16:43:27.471Z,8.80
2022-11-07T16:45:57.582Z,9.40
2022-11-07T16:48:28.914Z,8.18
2022-11-07T16:50:57.033Z,9.70
2022-11-07T16:53:25.309Z,8.88
2022-11-07T16:55:55.366Z,8.70
2022-11-07T16:58:28.303Z,8.55
2022-11-07T17:00:56.714Z,11.30
2022-11-07T17:03:27.738Z,9.23
2022-11-07T17:05:57.412Z,11.63
2022-11-07T17:08:26.955Z,9.52
2022-11-07T17:10:55.863Z,9.30
2022-11-07T17:13:23.210Z,17.17
2022-11-07T17:15:50.466Z,10.05
2022-11-07T17:18:22.408Z,10.18
2022-11-07T17:20:51.632Z,11.00
2022-11-07T17:23:19.589Z,15.52
2022-11-07T17:25:53.381Z,17.08
2022-11-07T17:28:21.009Z,13.85
2022-11-07T17:30:47.765Z,12.35
2022-11-07T17:33:15.801Z,13.60
2022-11-07T17:35:42.729Z,10.70
2022-11-07T17:38:17.277Z,13.30
2022-11-07T17:40:44.547Z,13.95
2022-11-07T17:43:11.299Z,19.67
2022-11-07T17:45:38.419Z,21.77
2022-11-07T17:48:05.343Z,16.42
2022-11-07T17:50:32.072Z,17.08
2022-11-07T17:52:58.761Z,15.13
2022-11-07T17:55:25.601Z,11.98
2022-11-07T17:57:52.446Z,12.10
2022-11-07T18:00:22.657Z,11.68
2022-11-07T18:02:53.695Z,11.70
2022-11-07T18:05:30.123Z,13.07
2022-11-07T18:07:59.698Z,12.88
2022-11-07T18:10:26.523Z,12.95
2022-11-07T18:12:56.965Z,11.77
2022-11-07T18:15:23.709Z,11.93
2022-11-07T18:17:53.244Z,12.63
2022-11-07T18:20:19.937Z,11.40
2022-11-07T18:22:46.903Z,11.55
2022-11-07T18:25:13.682Z,12.85
2022-11-07T18:27:40.361Z,12.43
2022-11-07T18:30:09.013Z,12.70
2022-11-07T18:32:38.824Z,13.20
2022-11-07T18:35:06.464Z,17.35
2022-11-07T18:37:35.690Z,15.73
2022-11-07T18:40:02.798Z,14.43
2022-11-07T18:42:31.104Z,14.52
2022-11-07T18:44:57.815Z,14.35
2022-11-07T18:47:24.702Z,15.27
2022-11-07T18:49:55.750Z,16.10
2022-11-07T18:52:24.256Z,15.50
2022-11-07T18:54:51.579Z,15.40
2022-11-07T18:57:18.293Z,15.63
2022-11-07T18:59:45.774Z,16.80
2022-11-07T19:02:14.289Z,16.80
2022-11-07T19:04:41.357Z,16.85
2022-11-07T19:07:09.460Z,16.73
2022-11-07T19:09:37.992Z,17.10
2022-11-07T19:12:04.965Z,16.15
2022-11-07T19:14:32.394Z,16.95
2022-11-07T19:17:00.281Z,17.50
2022-11-07T19:19:27.033Z,16.90
2022-11-07T19:21:53.736Z,18.05
2022-11-07T19:24:20.553Z,18.30
2022-11-07T19:26:47.332Z,16.92
2022-11-07T19:29:14.046Z,14.93
2022-11-07T19:31:40.786Z,16.33
2022-11-07T19:34:07.596Z,15.18
2022-11-07T19:36:35.376Z,16.30
2022-11-07T19:39:03.078Z,15.10
2022-11-07T19:41:30.083Z,15.77
2022-11-07T19:43:57.437Z,17.52
2022-11-07T19:46:24.668Z,16.92
2022-11-07T19:51:45.164Z,21.05
2022-11-07T19:54:12.351Z,19.98
2022-11-07T19:56:40.200Z,22.10
2022-11-07T19:59:06.928Z,20.73
2022-11-07T20:01:35.254Z,22.02
2022-11-07T20:04:03.484Z,21.98
2022-11-07T20:06:35.667Z,22.55
2022-11-07T20:09:06.239Z,22.20
2022-11-07T20:11:33.148Z,21.48
2022-11-07T20:14:03.579Z,22.10
2022-11-07T20:16:33.231Z,22.98
2022-11-07T20:19:00.703Z,22.40
2022-11-07T20:21:29.114Z,21.83
2022-11-07T20:23:58.105Z,23.38
2022-11-07T20:26:26.873Z,21.85
2022-11-07T20:28:53.814Z,24.75
2022-11-07T20:31:23.940Z,22.92
2022-11-07T20:33:51.079Z,21.75
2022-11-07T20:36:18.811Z,21.65
2022-11-07T20:38:45.696Z,21.27
2022-11-07T20:41:13.430Z,24.60
2022-11-07T20:43:41.429Z,22.77
2022-11-07T20:46:11.043Z,22.33
2022-11-07T20:48:38.912Z,22.25
2022-11-07T20:51:08.558Z,21.90
2022-11-07T20:53:36.479Z,21.80
2022-11-07T20:56:05.366Z,22.90
2022-11-07T20:58:38.033Z,21.45
2022-11-07T21:01:06.410Z,21.33
2022-11-07T21:03:35.031Z,22.35
2022-11-07T21:06:01.966Z,21.20
2022-11-07T21:08:36.993Z,22.10
2022-11-07T21:11:04.130Z,21.98
2022-11-07T21:13:30.905Z,21.00
2022-11-07T21:15:57.820Z,20.85
2022-11-07T21:18:24.846Z,20.38
2022-11-07T21:20:51.652Z,20.58
2022-11-07T21:23:18.672Z,20.35
2022-11-07T21:25:48.521Z,20.42
2022-11-07T21:28:17.907Z,20.65
2022-11-07T21:30:57.860Z,20.48
2022-11-07T21:33:25.182Z,20.98
2022-11-07T21:35:52.024Z,19.63
2022-11-07T21:38:18.724Z,20.58
2022-11-07T21:40:45.552Z,19.45
2022-11-07T21:43:12.389Z,19.35
2022-11-07T21:45:39.189Z,19.00
2022-11-07T21:48:06.137Z,20.05
2022-11-07T21:50:44.794Z,19.17
2022-11-07T21:53:12.159Z,19.02
2022-11-07T21:55:38.908Z,20.50
2022-11-07T21:58:07.061Z,21.13
2022-11-07T22:00:36.771Z,20.70
2022-11-07T22:03:04.313Z,20.23
2022-11-07T22:05:31.046Z,20.98
2022-11-07T22:07:58.058Z,23.55
2022-11-07T22:10:24.817Z,24.52
2022-11-07T22:12:52.828Z,25.70
2022-11-07T22:15:20.146Z,26.33
2022-11-07T22:17:48.109Z,28.85
2022-11-07T22:20:16.440Z,29.95
2022-11-07T22:22:43.817Z,30.17
2022-11-07T22:25:10.739Z,30.90
2022-11-07T22:27:37.572Z,30.95
2022-11-07T22:30:05.575Z,32.53
2022-11-07T22:32:32.301Z,31.75
2022-11-07T22:34:59.038Z,30.55
2022-11-07T22:37:25.797Z,31.02
2022-11-07T22:39:53.324Z,32.80
2022-11-07T22:42:23.742Z,29.83
2022-11-07T22:44:51.641Z,30.20
2022-11-07T22:47:19.569Z,31.35
2022-11-07T22:49:46.249Z,29.95
2022-11-07T22:52:12.983Z,30.80
2022-11-07T22:54:39.650Z,31.40
2022-11-07T22:57:06.349Z,31.98
2022-11-07T22:59:33.262Z,31.92
2022-11-07T23:02:00.048Z,34.28
2022-11-07T23:04:32.441Z,34.20
2022-11-07T23:06:59.638Z,31.90
2022-11-07T23:09:26.365Z,33.75
2022-11-07T23:11:53.208Z,32.70
2022-11-07T23:14:21.958Z,34.40
2022-11-07T23:16:51.102Z,36.17
2022-11-07T23:19:19.902Z,36.13
2022-11-07T23:21:47.001Z,38.17
2022-11-07T23:24:13.959Z,36.30
2022-11-07T23:26:40.820Z,37.20
2022-11-07T23:29:33.907Z,36.05
2022-11-07T23:32:00.654Z,36.80
2022-11-07T23:34:27.474Z,36.70
2022-11-07T23:36:54.289Z,34.25
2022-11-07T23:39:23.383Z,35.40
2022-11-07T23:41:51.268Z,35.38
2022-11-07T23:44:17.972Z,37.75
2022-11-07T23:47:03.260Z,37.75
2022-11-07T23:49:48.806Z,37.13
2022-11-07T23:52:18.045Z,39.45
2022-11-07T23:55:03.241Z,41.22
2022-11-07T23:57:34.295Z,44.85
